sensor_id;sensor_type;location;lat;lon;timestamp;pressure;altitude;pressure_sealevel;temperature;humidity
28181;BME280;15464;50.988;10.318;2023-11-22T00:00:17;99701.69;;;0.49;85.88
28181;BME280;15464;50.988;10.318;2023-11-22T00:02:44;99704.50;;;0.43;86.52
28181;BME280;15464;50.988;10.318;2023-11-22T00:05:10;99703.91;;;0.35;87.36
28181;BME280;15464;50.988;10.318;2023-11-22T00:07:37;99709.31;;;0.29;86.79
28181;BME280;15464;50.988;10.318;2023-11-22T00:10:05;99705.03;;;0.26;86.71
28181;BME280;15464;50.988;10.318;2023-11-22T00:12:32;99706.91;;;0.23;86.67
28181;BME280;15464;50.988;10.318;2023-11-22T00:15:04;99711.22;;;0.24;87.16
28181;BME280;15464;50.988;10.318;2023-11-22T00:17:32;99710.59;;;0.16;86.06
28181;BME280;15464;50.988;10.318;2023-11-22T00:20:00;99714.00;;;0.18;84.91
28181;BME280;15464;50.988;10.318;2023-11-22T00:22:32;99716.63;;;0.18;85.35
28181;BME280;15464;50.988;10.318;2023-11-22T00:25:00;99716.88;;;0.09;84.95
28181;BME280;15464;50.988;10.318;2023-11-22T00:27:28;99718.50;;;0.13;85.11
28181;BME280;15464;50.988;10.318;2023-11-22T00:29:58;99727.31;;;0.09;85.25
28181;BME280;15464;50.988;10.318;2023-11-22T00:32:25;99736.94;;;0.07;86.25
28181;BME280;15464;50.988;10.318;2023-11-22T00:34:52;99738.13;;;-0.04;85.61
28181;BME280;15464;50.988;10.318;2023-11-22T00:37:19;99743.00;;;0.07;85.29
28181;BME280;15464;50.988;10.318;2023-11-22T00:39:46;99750.94;;;0.04;86.64
28181;BME280;15464;50.988;10.318;2023-11-22T00:42:13;99748.38;;;0.03;86.12
28181;BME280;15464;50.988;10.318;2023-11-22T00:44:40;99751.09;;;-0.01;86.55
28181;BME280;15464;50.988;10.318;2023-11-22T00:47:06;99753.88;;;-0.07;86.68
28181;BME280;15464;50.988;10.318;2023-11-22T00:49:33;99759.09;;;-0.07;86.45
28181;BME280;15464;50.988;10.318;2023-11-22T00:52:00;99763.56;;;-0.12;86.58
28181;BME280;15464;50.988;10.318;2023-11-22T00:54:29;99760.94;;;-0.12;86.04
28181;BME280;15464;50.988;10.318;2023-11-22T00:56:56;99764.56;;;-0.16;86.32
28181;BME280;15464;50.988;10.318;2023-11-22T00:59:22;99762.88;;;-0.18;87.00
28181;BME280;15464;50.988;10.318;2023-11-22T01:01:49;99769.94;;;-0.22;86.91
28181;BME280;15464;50.988;10.318;2023-11-22T01:04:16;99780.44;;;-0.25;87.50
28181;BME280;15464;50.988;10.318;2023-11-22T01:06:43;99782.34;;;-0.30;87.34
28181;BME280;15464;50.988;10.318;2023-11-22T01:09:09;99787.66;;;-0.33;87.30
28181;BME280;15464;50.988;10.318;2023-11-22T01:11:38;99792.91;;;-0.34;87.12
28181;BME280;15464;50.988;10.318;2023-11-22T01:14:05;99802.44;;;-0.33;87.27
28181;BME280;15464;50.988;10.318;2023-11-22T01:16:32;99805.09;;;-0.36;87.45
28181;BME280;15464;50.988;10.318;2023-11-22T01:18:58;99801.63;;;-0.37;87.49
28181;BME280;15464;50.988;10.318;2023-11-22T01:21:25;99801.56;;;-0.34;87.88
28181;BME280;15464;50.988;10.318;2023-11-22T01:23:52;99811.16;;;-0.36;88.29
28181;BME280;15464;50.988;10.318;2023-11-22T01:26:18;99810.28;;;-0.35;88.37
28181;BME280;15464;50.988;10.318;2023-11-22T01:28:45;99807.47;;;-0.27;86.89
28181;BME280;15464;50.988;10.318;2023-11-22T01:31:12;99797.91;;;-0.27;86.66
28181;BME280;15464;50.988;10.318;2023-11-22T01:33:39;99799.69;;;-0.29;85.98
28181;BME280;15464;50.988;10.318;2023-11-22T01:36:06;99809.22;;;-0.28;87.26
28181;BME280;15464;50.988;10.318;2023-11-22T01:38:33;99808.03;;;-0.16;83.77
28181;BME280;15464;50.988;10.318;2023-11-22T01:41:01;99802.78;;;-0.15;84.71
28181;BME280;15464;50.988;10.318;2023-11-22T01:43:28;99801.78;;;-0.11;81.25
28181;BME280;15464;50.988;10.318;2023-11-22T01:45:55;99799.09;;;-0.08;82.17
28181;BME280;15464;50.988;10.318;2023-11-22T01:48:23;99800.13;;;-0.13;83.81
28181;BME280;15464;50.988;10.318;2023-11-22T01:50:50;99797.56;;;-0.15;84.23
28181;BME280;15464;50.988;10.318;2023-11-22T01:53:16;99802.78;;;-0.15;83.93
28181;BME280;15464;50.988;10.318;2023-11-22T01:55:44;99796.53;;;-0.09;84.39
28181;BME280;15464;50.988;10.318;2023-11-22T01:58:12;99799.09;;;-0.08;86.06
28181;BME280;15464;50.988;10.318;2023-11-22T02:00:49;99807.72;;;-0.06;86.25
28181;BME280;15464;50.988;10.318;2023-11-22T02:03:16;99798.06;;;-0.02;85.93
28181;BME280;15464;50.988;10.318;2023-11-22T02:05:44;99807.53;;;0.00;86.80
28181;BME280;15464;50.988;10.318;2023-11-22T02:08:12;99809.25;;;0.02;86.73
28181;BME280;15464;50.988;10.318;2023-11-22T02:10:39;99810.91;;;0.04;86.50
28181;BME280;15464;50.988;10.318;2023-11-22T02:13:07;99810.06;;;0.04;86.16
28181;BME280;15464;50.988;10.318;2023-11-22T02:15:34;99808.28;;;0.06;86.20
28181;BME280;15464;50.988;10.318;2023-11-22T02:18:02;99815.91;;;0.12;86.46
28181;BME280;15464;50.988;10.318;2023-11-22T02:20:38;99819.31;;;0.14;86.43
28181;BME280;15464;50.988;10.318;2023-11-22T02:23:10;99824.47;;;0.17;85.96
28181;BME280;15464;50.988;10.318;2023-11-22T02:25:38;99829.53;;;0.21;85.54
28181;BME280;15464;50.988;10.318;2023-11-22T02:28:05;99819.06;;;0.23;85.30
28181;BME280;15464;50.988;10.318;2023-11-22T02:30:35;99813.91;;;0.20;85.46
28181;BME280;15464;50.988;10.318;2023-11-22T02:33:02;99820.97;;;0.18;85.66
28181;BME280;15464;50.988;10.318;2023-11-22T02:35:29;99820.84;;;0.21;85.30
28181;BME280;15464;50.988;10.318;2023-11-22T02:37:55;99825.13;;;0.23;84.45
28181;BME280;15464;50.988;10.318;2023-11-22T02:40:22;99831.28;;;0.21;85.00
28181;BME280;15464;50.988;10.318;2023-11-22T02:42:50;99828.72;;;0.19;85.57
28181;BME280;15464;50.988;10.318;2023-11-22T02:45:19;99829.63;;;0.18;86.03
28181;BME280;15464;50.988;10.318;2023-11-22T02:47:46;99841.81;;;0.18;85.10
28181;BME280;15464;50.988;10.318;2023-11-22T02:50:13;99834.94;;;0.15;85.10
28181;BME280;15464;50.988;10.318;2023-11-22T02:52:40;99831.28;;;0.21;85.13
28181;BME280;15464;50.988;10.318;2023-11-22T02:55:08;99827.88;;;0.19;84.35
28181;BME280;15464;50.988;10.318;2023-11-22T02:57:38;99829.56;;;0.20;85.71
28181;BME280;15464;50.988;10.318;2023-11-22T03:00:09;99839.22;;;0.18;86.12
28181;BME280;15464;50.988;10.318;2023-11-22T03:02:42;99841.81;;;0.18;85.91
28181;BME280;15464;50.988;10.318;2023-11-22T03:05:09;99838.31;;;0.19;84.94
28181;BME280;15464;50.988;10.318;2023-11-22T03:07:37;99835.56;;;0.23;85.24
28181;BME280;15464;50.988;10.318;2023-11-22T03:10:04;99834.56;;;0.27;85.09
28181;BME280;15464;50.988;10.318;2023-11-22T03:12:31;99848.47;;;0.28;84.57
28181;BME280;15464;50.988;10.318;2023-11-22T03:14:58;99845.81;;;0.29;84.11
28181;BME280;15464;50.988;10.318;2023-11-22T03:17:27;99845.03;;;0.26;84.84
28181;BME280;15464;50.988;10.318;2023-11-22T03:19:57;99843.38;;;0.25;84.45
28181;BME280;15464;50.988;10.318;2023-11-22T03:22:25;99844.97;;;0.29;84.36
28181;BME280;15464;50.988;10.318;2023-11-22T03:24:52;99847.47;;;0.32;84.74
28181;BME280;15464;50.988;10.318;2023-11-22T03:27:21;99855.31;;;0.32;84.66
28181;BME280;15464;50.988;10.318;2023-11-22T03:29:49;99866.59;;;0.32;84.95
28181;BME280;15464;50.988;10.318;2023-11-22T03:32:16;99869.16;;;0.34;85.00
28181;BME280;15464;50.988;10.318;2023-11-22T03:34:44;99876.00;;;0.38;85.24
28181;BME280;15464;50.988;10.318;2023-11-22T03:37:10;99865.91;;;0.26;84.04
28181;BME280;15464;50.988;10.318;2023-11-22T03:39:37;99875.38;;;0.30;84.45
28181;BME280;15464;50.988;10.318;2023-11-22T03:42:04;99878.00;;;0.30;83.88
28181;BME280;15464;50.988;10.318;2023-11-22T03:44:31;99876.28;;;0.29;84.46
28181;BME280;15464;50.988;10.318;2023-11-22T03:46:58;99885.69;;;0.34;84.05
28181;BME280;15464;50.988;10.318;2023-11-22T03:49:24;99894.50;;;0.30;84.86
28181;BME280;15464;50.988;10.318;2023-11-22T03:51:51;99901.47;;;0.30;85.42
28181;BME280;15464;50.988;10.318;2023-11-22T03:54:18;99899.66;;;0.32;85.30
28181;BME280;15464;50.988;10.318;2023-11-22T03:56:45;99906.59;;;0.33;85.31
28181;BME280;15464;50.988;10.318;2023-11-22T03:59:13;99913.50;;;0.35;85.63
28181;BME280;15464;50.988;10.318;2023-11-22T04:01:39;99916.22;;;0.31;85.31
28181;BME280;15464;50.988;10.318;2023-11-22T04:04:06;99911.69;;;0.37;84.29
28181;BME280;15464;50.988;10.318;2023-11-22T04:06:36;99917.84;;;0.35;85.12
28181;BME280;15464;50.988;10.318;2023-11-22T04:09:03;99916.94;;;0.36;85.43
28181;BME280;15464;50.988;10.318;2023-11-22T04:11:30;99921.19;;;0.40;84.78
28181;BME280;15464;50.988;10.318;2023-11-22T04:13:58;99931.63;;;0.40;85.45
28181;BME280;15464;50.988;10.318;2023-11-22T04:16:26;99925.66;;;0.35;85.68
28181;BME280;15464;50.988;10.318;2023-11-22T04:18:53;99921.38;;;0.32;85.03
28181;BME280;15464;50.988;10.318;2023-11-22T04:21:20;99927.34;;;0.37;85.32
28181;BME280;15464;50.988;10.318;2023-11-22T04:23:46;99930.78;;;0.38;84.81
28181;BME280;15464;50.988;10.318;2023-11-22T04:26:14;99930.94;;;0.33;83.97
28181;BME280;15464;50.988;10.318;2023-11-22T04:28:42;99930.94;;;0.33;83.97
28181;BME280;15464;50.988;10.318;2023-11-22T04:31:09;99947.53;;;0.31;84.92
28181;BME280;15464;50.988;10.318;2023-11-22T04:33:36;99954.72;;;0.23;85.29
28181;BME280;15464;50.988;10.318;2023-11-22T04:36:05;99951.44;;;0.15;83.92
28181;BME280;15464;50.988;10.318;2023-11-22T04:38:31;99960.22;;;0.12;83.10
28181;BME280;15464;50.988;10.318;2023-11-22T04:40:58;99958.59;;;0.08;83.24
28181;BME280;15464;50.988;10.318;2023-11-22T04:43:25;99953.53;;;0.02;80.55
28181;BME280;15464;50.988;10.318;2023-11-22T04:45:51;99957.19;;;-0.05;79.40
28181;BME280;15464;50.988;10.318;2023-11-22T04:48:18;99966.03;;;-0.11;78.65
28181;BME280;15464;50.988;10.318;2023-11-22T04:50:45;99964.56;;;-0.21;80.01
28181;BME280;15464;50.988;10.318;2023-11-22T04:53:12;99965.50;;;-0.23;79.30
28181;BME280;15464;50.988;10.318;2023-11-22T04:55:38;99972.44;;;-0.24;78.66
28181;BME280;15464;50.988;10.318;2023-11-22T04:58:06;99976.00;;;-0.26;79.36
28181;BME280;15464;50.988;10.318;2023-11-22T05:00:33;99985.59;;;-0.28;78.93
28181;BME280;15464;50.988;10.318;2023-11-22T05:02:59;99991.72;;;-0.29;78.67
28181;BME280;15464;50.988;10.318;2023-11-22T05:05:26;99996.91;;;-0.29;79.07
28181;BME280;15464;50.988;10.318;2023-11-22T05:07:53;100004.03;;;-0.36;79.84
28181;BME280;15464;50.988;10.318;2023-11-22T05:10:20;100004.88;;;-0.34;80.48
28181;BME280;15464;50.988;10.318;2023-11-22T05:12:46;100006.59;;;-0.34;80.99
28181;BME280;15464;50.988;10.318;2023-11-22T05:15:13;100011.78;;;-0.33;81.16
28181;BME280;15464;50.988;10.318;2023-11-22T05:17:40;100015.19;;;-0.31;80.22
28181;BME280;15464;50.988;10.318;2023-11-22T05:20:08;100025.84;;;-0.40;81.11
28181;BME280;15464;50.988;10.318;2023-11-22T05:22:37;100031.84;;;-0.36;81.22
28181;BME280;15464;50.988;10.318;2023-11-22T05:25:04;100024.00;;;-0.35;81.59
28181;BME280;15464;50.988;10.318;2023-11-22T05:27:33;100029.22;;;-0.35;81.27
28181;BME280;15464;50.988;10.318;2023-11-22T05:30:00;100037.75;;;-0.30;80.89
28181;BME280;15464;50.988;10.318;2023-11-22T05:32:28;100044.06;;;-0.38;81.31
28181;BME280;15464;50.988;10.318;2023-11-22T05:34:55;100039.78;;;-0.41;81.42
28181;BME280;15464;50.988;10.318;2023-11-22T05:37:22;100041.63;;;-0.46;82.13
28181;BME280;15464;50.988;10.318;2023-11-22T05:39:51;100045.00;;;-0.41;83.24
28181;BME280;15464;50.988;10.318;2023-11-22T05:42:17;100045.84;;;-0.41;83.17
28181;BME280;15464;50.988;10.318;2023-11-22T05:44:44;100044.94;;;-0.38;84.00
28181;BME280;15464;50.988;10.318;2023-11-22T05:47:11;100049.31;;;-0.40;83.63
28181;BME280;15464;50.988;10.318;2023-11-22T05:49:39;100043.22;;;-0.39;83.96
28181;BME280;15464;50.988;10.318;2023-11-22T05:52:06;100032.78;;;-0.39;83.75
28181;BME280;15464;50.988;10.318;2023-11-22T05:54:33;100036.28;;;-0.40;84.19
28181;BME280;15464;50.988;10.318;2023-11-22T05:57:00;100043.28;;;-0.42;83.77
28181;BME280;15464;50.988;10.318;2023-11-22T05:59:26;100042.34;;;-0.39;83.21
28181;BME280;15464;50.988;10.318;2023-11-22T06:01:53;100049.34;;;-0.42;83.32
28181;BME280;15464;50.988;10.318;2023-11-22T06:04:20;100041.69;;;-0.49;83.61
28181;BME280;15464;50.988;10.318;2023-11-22T06:06:47;100053.84;;;-0.48;83.10
28181;BME280;15464;50.988;10.318;2023-11-22T06:09:14;100059.13;;;-0.51;82.27
28181;BME280;15464;50.988;10.318;2023-11-22T06:11:41;100067.88;;;-0.55;82.08
28181;BME280;15464;50.988;10.318;2023-11-22T06:14:08;100061.78;;;-0.54;81.67
28181;BME280;15464;50.988;10.318;2023-11-22T06:16:35;100070.47;;;-0.54;82.51
28181;BME280;15464;50.988;10.318;2023-11-22T06:19:02;100071.28;;;-0.50;81.50
28181;BME280;15464;50.988;10.318;2023-11-22T06:21:28;100068.88;;;-0.59;81.39
28181;BME280;15464;50.988;10.318;2023-11-22T06:23:55;100070.69;;;-0.63;81.57
28181;BME280;15464;50.988;10.318;2023-11-22T06:26:25;100080.25;;;-0.63;81.56
28181;BME280;15464;50.988;10.318;2023-11-22T06:28:52;100074.22;;;-0.65;82.71
28181;BME280;15464;50.988;10.318;2023-11-22T06:31:18;100079.41;;;-0.64;83.45
28181;BME280;15464;50.988;10.318;2023-11-22T06:33:45;100084.53;;;-0.62;82.71
28181;BME280;15464;50.988;10.318;2023-11-22T06:36:12;100084.53;;;-0.61;83.13
28181;BME280;15464;50.988;10.318;2023-11-22T06:38:41;100096.69;;;-0.61;83.77
28181;BME280;15464;50.988;10.318;2023-11-22T06:41:08;100097.41;;;-0.55;82.75
28181;BME280;15464;50.988;10.318;2023-11-22T06:43:35;100103.47;;;-0.53;83.37
28181;BME280;15464;50.988;10.318;2023-11-22T06:46:02;100112.13;;;-0.52;82.67
28181;BME280;15464;50.988;10.318;2023-11-22T06:48:32;100114.75;;;-0.52;81.45
28181;BME280;15464;50.988;10.318;2023-11-22T06:51:00;100119.72;;;-0.43;81.25
28181;BME280;15464;50.988;10.318;2023-11-22T06:53:27;100112.88;;;-0.47;81.66
28181;BME280;15464;50.988;10.318;2023-11-22T06:55:54;100115.44;;;-0.44;81.60
28181;BME280;15464;50.988;10.318;2023-11-22T06:58:21;100107.69;;;-0.47;81.80
28181;BME280;15464;50.988;10.318;2023-11-22T07:00:48;100117.34;;;-0.52;82.12
28181;BME280;15464;50.988;10.318;2023-11-22T07:03:15;100126.94;;;-0.54;81.44
28181;BME280;15464;50.988;10.318;2023-11-22T07:05:43;100137.38;;;-0.56;81.92
28181;BME280;15464;50.988;10.318;2023-11-22T07:08:10;100146.06;;;-0.55;82.50
28181;BME280;15464;50.988;10.318;2023-11-22T07:10:43;100140.84;;;-0.55;81.33
28181;BME280;15464;50.988;10.318;2023-11-22T07:13:11;100147.78;;;-0.54;81.12
28181;BME280;15464;50.988;10.318;2023-11-22T07:15:39;100147.78;;;-0.54;81.10
28181;BME280;15464;50.988;10.318;2023-11-22T07:18:07;100145.19;;;-0.56;81.54
28181;BME280;15464;50.988;10.318;2023-11-22T07:20:36;100142.66;;;-0.59;80.15
28181;BME280;15464;50.988;10.318;2023-11-22T07:23:03;100142.66;;;-0.59;80.66
28181;BME280;15464;50.988;10.318;2023-11-22T07:25:31;100147.84;;;-0.57;80.96
28181;BME280;15464;50.988;10.318;2023-11-22T07:27:58;100146.13;;;-0.58;81.00
28181;BME280;15464;50.988;10.318;2023-11-22T07:30:25;100149.47;;;-0.52;80.43
28181;BME280;15464;50.988;10.318;2023-11-22T07:32:56;100158.94;;;-0.48;81.26
28181;BME280;15464;50.988;10.318;2023-11-22T07:35:25;100140.94;;;-0.58;81.96
28181;BME280;15464;50.988;10.318;2023-11-22T07:37:55;100152.22;;;-0.59;82.15
28181;BME280;15464;50.988;10.318;2023-11-22T07:40:21;100150.34;;;-0.51;81.29
28181;BME280;15464;50.988;10.318;2023-11-22T07:42:49;100151.22;;;-0.52;81.97
28181;BME280;15464;50.988;10.318;2023-11-22T07:45:16;100144.41;;;-0.59;82.31
28181;BME280;15464;50.988;10.318;2023-11-22T07:47:43;100154.72;;;-0.53;82.95
28181;BME280;15464;50.988;10.318;2023-11-22T07:50:11;100144.09;;;-0.44;81.92
28181;BME280;15464;50.988;10.318;2023-11-22T07:52:38;100159.66;;;-0.41;81.55
28181;BME280;15464;50.988;10.318;2023-11-22T07:55:07;100151.13;;;-0.48;82.39
28181;BME280;15464;50.988;10.318;2023-11-22T07:57:34;100147.66;;;-0.48;82.85
28181;BME280;15464;50.988;10.318;2023-11-22T08:00:01;100146.66;;;-0.43;83.08
28181;BME280;15464;50.988;10.318;2023-11-22T08:02:31;100149.00;;;-0.30;82.22
28181;BME280;15464;50.988;10.318;2023-11-22T08:05:00;100143.84;;;-0.32;81.35
28181;BME280;15464;50.988;10.318;2023-11-22T08:07:30;100128.84;;;-0.22;81.46
28181;BME280;15464;50.988;10.318;2023-11-22T08:09:56;100138.41;;;-0.23;80.37
28181;BME280;15464;50.988;10.318;2023-11-22T08:12:23;100137.44;;;-0.19;80.28
28181;BME280;15464;50.988;10.318;2023-11-22T08:14:50;100141.88;;;-0.22;81.54
28181;BME280;15464;50.988;10.318;2023-11-22T08:17:18;100133.16;;;-0.21;80.05
28181;BME280;15464;50.988;10.318;2023-11-22T08:19:46;100140.69;;;-0.09;79.24
28181;BME280;15464;50.988;10.318;2023-11-22T08:22:14;100122.56;;;-0.14;79.78
28181;BME280;15464;50.988;10.318;2023-11-22T08:24:41;100112.88;;;-0.09;78.72
28181;BME280;15464;50.988;10.318;2023-11-22T08:27:08;100104.22;;;-0.11;78.98
28181;BME280;15464;50.988;10.318;2023-11-22T08:29:34;100118.72;;;0.01;79.18
28181;BME280;15464;50.988;10.318;2023-11-22T08:32:01;100123.06;;;0.00;78.85
28181;BME280;15464;50.988;10.318;2023-11-22T08:34:28;100117.91;;;-0.01;79.15
28181;BME280;15464;50.988;10.318;2023-11-22T08:36:55;100109.31;;;-0.06;77.23
28181;BME280;15464;50.988;10.318;2023-11-22T08:39:24;100105.69;;;0.01;77.62
28181;BME280;15464;50.988;10.318;2023-11-22T08:41:50;100113.44;;;0.04;79.44
28181;BME280;15464;50.988;10.318;2023-11-22T08:44:17;100124.59;;;0.11;82.02
28181;BME280;15464;50.988;10.318;2023-11-22T08:46:44;100131.28;;;0.21;79.76
28181;BME280;15464;50.988;10.318;2023-11-22T08:49:13;100138.03;;;0.29;82.24
28181;BME280;15464;50.988;10.318;2023-11-22T08:51:41;100135.81;;;0.13;78.46
28181;BME280;15464;50.988;10.318;2023-11-22T08:54:09;100137.78;;;0.05;78.50
28181;BME280;15464;50.988;10.318;2023-11-22T08:56:36;100138.34;;;0.17;75.80
28181;BME280;15464;50.988;10.318;2023-11-22T08:59:02;100143.69;;;0.11;77.17
28181;BME280;15464;50.988;10.318;2023-11-22T09:01:31;100147.25;;;0.07;75.84
28181;BME280;15464;50.988;10.318;2023-11-22T09:03:58;100148.22;;;0.05;76.56
28181;BME280;15464;50.988;10.318;2023-11-22T09:06:24;100154.38;;;0.00;76.62
28181;BME280;15464;50.988;10.318;2023-11-22T09:08:51;100163.28;;;-0.08;76.84
28181;BME280;15464;50.988;10.318;2023-11-22T09:11:18;100173.69;;;-0.07;78.16
28181;BME280;15464;50.988;10.318;2023-11-22T09:13:48;100184.13;;;-0.07;79.06
28181;BME280;15464;50.988;10.318;2023-11-22T09:16:16;100181.56;;;-0.10;77.34
28181;BME280;15464;50.988;10.318;2023-11-22T09:18:46;100191.94;;;-0.07;79.08
28181;BME280;15464;50.988;10.318;2023-11-22T09:21:13;100193.34;;;0.07;79.14
28181;BME280;15464;50.988;10.318;2023-11-22T09:23:43;100193.19;;;0.14;80.10
28181;BME280;15464;50.988;10.318;2023-11-22T09:26:10;100187.72;;;0.25;81.52
28181;BME280;15464;50.988;10.318;2023-11-22T09:28:37;100192.66;;;0.37;79.42
28181;BME280;15464;50.988;10.318;2023-11-22T09:31:05;100191.25;;;0.22;77.92
28181;BME280;15464;50.988;10.318;2023-11-22T09:33:33;100188.91;;;0.47;77.65
28181;BME280;15464;50.988;10.318;2023-11-22T09:35:59;100185.78;;;0.68;80.52
28181;BME280;15464;50.988;10.318;2023-11-22T09:38:26;100191.59;;;0.79;78.47
28181;BME280;15464;50.988;10.318;2023-11-22T09:40:53;100179.72;;;0.66;71.41
28181;BME280;15464;50.988;10.318;2023-11-22T09:43:20;100176.41;;;0.60;70.79
28181;BME280;15464;50.988;10.318;2023-11-22T09:45:48;100177.41;;;0.56;70.48
28181;BME280;15464;50.988;10.318;2023-11-22T09:48:22;100165.44;;;0.47;70.82
28181;BME280;15464;50.988;10.318;2023-11-22T09:56:11;100181.00;;;0.50;71.75
28181;BME280;15464;50.988;10.318;2023-11-22T09:58:41;100181.97;;;0.46;71.62
28181;BME280;15464;50.988;10.318;2023-11-22T10:01:11;100164.59;;;0.45;70.65
28181;BME280;15464;50.988;10.318;2023-11-22T10:03:40;100155.66;;;0.55;71.50
28181;BME280;15464;50.988;10.318;2023-11-22T10:06:07;100168.88;;;0.49;70.05
28181;BME280;15464;50.988;10.318;2023-11-22T10:08:34;100182.94;;;0.44;70.32
28181;BME280;15464;50.988;10.318;2023-11-22T10:11:03;100188.91;;;0.47;71.28
28181;BME280;15464;50.988;10.318;2023-11-22T10:13:30;100189.78;;;0.48;70.66
28181;BME280;15464;50.988;10.318;2023-11-22T10:16:11;100176.75;;;0.46;68.66
28181;BME280;15464;50.988;10.318;2023-11-22T10:18:43;100176.63;;;0.51;68.63
28181;BME280;15464;50.988;10.318;2023-11-22T10:21:24;100177.63;;;0.47;69.03
28181;BME280;15464;50.988;10.318;2023-11-22T10:24:04;100175.09;;;0.44;69.13
28181;BME280;15464;50.988;10.318;2023-11-22T10:26:31;100167.75;;;0.58;70.42
28181;BME280;15464;50.988;10.318;2023-11-22T10:28:58;100155.56;;;0.58;68.71
28181;BME280;15464;50.988;10.318;2023-11-22T10:31:26;100155.56;;;0.58;66.20
28181;BME280;15464;50.988;10.318;2023-11-22T10:33:54;100137.97;;;0.66;67.07
28181;BME280;15464;50.988;10.318;2023-11-22T10:36:21;100138.03;;;0.63;68.58
28181;BME280;15464;50.988;10.318;2023-11-22T10:38:49;100141.47;;;0.65;68.47
28181;BME280;15464;50.988;10.318;2023-11-22T10:41:20;100157.78;;;0.73;69.31
28181;BME280;15464;50.988;10.318;2023-11-22T10:43:51;100163.22;;;0.66;69.23
28181;BME280;15464;50.988;10.318;2023-11-22T10:46:18;100168.50;;;0.63;67.91
28181;BME280;15464;50.988;10.318;2023-11-22T10:48:45;100160.47;;;0.70;67.17
28181;BME280;15464;50.988;10.318;2023-11-22T10:51:13;100177.69;;;0.77;68.29
28181;BME280;15464;50.988;10.318;2023-11-22T10:53:52;100170.06;;;0.70;69.19
28181;BME280;15464;50.988;10.318;2023-11-22T10:56:20;100173.56;;;0.69;69.24
28181;BME280;15464;50.988;10.318;2023-11-22T10:58:49;100189.84;;;0.78;69.95
28181;BME280;15464;50.988;10.318;2023-11-22T11:01:21;100197.75;;;0.75;70.37
28181;BME280;15464;50.988;10.318;2023-11-22T11:04:02;100197.88;;;0.71;70.26
28181;BME280;15464;50.988;10.318;2023-11-22T11:06:34;100193.34;;;0.79;69.60
28181;BME280;15464;50.988;10.318;2023-11-22T11:09:04;100197.72;;;0.77;69.57
28181;BME280;15464;50.988;10.318;2023-11-22T11:11:37;100203.50;;;0.90;68.61
28181;BME280;15464;50.988;10.318;2023-11-22T11:14:08;100218.06;;;0.98;68.56
28181;BME280;15464;50.988;10.318;2023-11-22T11:16:39;100224.00;;;1.05;70.11
28181;BME280;15464;50.988;10.318;2023-11-22T11:19:15;100235.03;;;1.16;69.94
28181;BME280;15464;50.988;10.318;2023-11-22T11:21:44;100243.72;;;1.16;70.77
28181;BME280;15464;50.988;10.318;2023-11-22T11:24:11;100240.13;;;1.20;68.13
28181;BME280;15464;50.988;10.318;2023-11-22T11:26:38;100238.19;;;1.27;68.13
28181;BME280;15464;50.988;10.318;2023-11-22T11:29:05;100214.50;;;1.33;66.32
28181;BME280;15464;50.988;10.318;2023-11-22T11:31:38;100209.28;;;1.33;66.35
28181;BME280;15464;50.988;10.318;2023-11-22T11:34:07;100223.94;;;1.39;65.94
28181;BME280;15464;50.988;10.318;2023-11-22T11:36:37;100227.53;;;1.35;65.71
28181;BME280;15464;50.988;10.318;2023-11-22T11:39:12;100233.63;;;1.35;65.79
28181;BME280;15464;50.988;10.318;2023-11-22T11:41:42;100228.72;;;1.55;66.01
28181;BME280;15464;50.988;10.318;2023-11-22T11:44:09;100225.25;;;1.55;68.17
28181;BME280;15464;50.988;10.318;2023-11-22T11:46:38;100209.03;;;1.73;68.50
28181;BME280;15464;50.988;10.318;2023-11-22T11:49:07;100208.78;;;1.81;68.47
28181;BME280;15464;50.988;10.318;2023-11-22T11:51:35;100208.66;;;1.85;65.25
28181;BME280;15464;50.988;10.318;2023-11-22T11:54:02;100198.09;;;1.88;65.02
28181;BME280;15464;50.988;10.318;2023-11-22T11:56:29;100184.50;;;1.76;66.93
28181;BME280;15464;50.988;10.318;2023-11-22T11:58:57;100194.22;;;1.72;67.89
28181;BME280;15464;50.988;10.318;2023-11-22T12:01:27;100199.44;;;1.72;69.21
28181;BME280;15464;50.988;10.318;2023-11-22T12:03:54;100199.59;;;1.68;69.28
28181;BME280;15464;50.988;10.318;2023-11-22T12:06:21;100189.31;;;1.61;68.70
28181;BME280;15464;50.988;10.318;2023-11-22T12:08:49;100182.09;;;1.70;69.22
28181;BME280;15464;50.988;10.318;2023-11-22T12:11:15;100170.47;;;1.80;69.47
28181;BME280;15464;50.988;10.318;2023-11-22T12:13:45;100167.50;;;1.90;69.38
28181;BME280;15464;50.988;10.318;2023-11-22T12:16:18;100168.19;;;1.97;69.27
28181;BME280;15464;50.988;10.318;2023-11-22T12:18:48;100173.16;;;1.77;68.11
28181;BME280;15464;50.988;10.318;2023-11-22T12:21:17;100185.28;;;1.79;68.22
28181;BME280;15464;50.988;10.318;2023-11-22T12:23:46;100185.34;;;1.78;67.12
28181;BME280;15464;50.988;10.318;2023-11-22T12:26:16;100154.88;;;1.75;66.29
28181;BME280;15464;50.988;10.318;2023-11-22T12:28:48;100145.63;;;1.65;66.12
28181;BME280;15464;50.988;10.318;2023-11-22T12:31:29;100137.22;;;1.55;66.17
28181;BME280;15464;50.988;10.318;2023-11-22T12:34:02;100138.88;;;1.56;65.86
28181;BME280;15464;50.988;10.318;2023-11-22T12:36:29;100133.31;;;1.69;68.06
28181;BME280;15464;50.988;10.318;2023-11-22T12:38:56;100136.66;;;1.74;68.30
28181;BME280;15464;50.988;10.318;2023-11-22T12:41:26;100144.50;;;1.74;67.44
28181;BME280;15464;50.988;10.318;2023-11-22T12:44:06;100141.72;;;1.78;65.51
28181;BME280;15464;50.988;10.318;2023-11-22T12:46:54;100126.19;;;1.74;67.78
28181;BME280;15464;50.988;10.318;2023-11-22T12:49:25;100105.16;;;1.77;68.53
28181;BME280;15464;50.988;10.318;2023-11-22T12:51:54;100111.16;;;1.80;68.05
28181;BME280;15464;50.988;10.318;2023-11-22T12:54:21;100103.25;;;1.82;67.61
28181;BME280;15464;50.988;10.318;2023-11-22T12:56:51;100100.31;;;1.65;66.70
28181;BME280;15464;50.988;10.318;2023-11-22T12:59:25;100087.06;;;1.69;68.62